Xunlong5 — BYGW — position and weather

sailwx.info

Track history (hours):
 
Tides and Currents Weather Stations Pressure Air Temp Water Temp Dewpoint Dewpoint Depression Visibility Wind Speed Wind Dir Waves Ship Positions

Xunlong5

Last reported at 2014-Oct-23 02:26 UTC. Time now 2014-Oct-23 03:02 UTC.
Position N 22°29' E 113°55'.

Length 34 m; draft 1.4 m.

Type: High speed craft. MMSI: 413471870.

Date/timePositionNaut miles runAvg speedWind from/ knotsBaromVisibWave heightAir tempDewpointWater temp
2014-Oct-23 02:26N 22°29' E 113°55'0 0.0
2014-Oct-23 01:32N 22°29' E 113°55'0 0.0
2014-Oct-23 00:29N 22°29' E 113°55'0 0.0
2014-Oct-22 23:29N 22°29' E 113°55'0 0.0
2014-Oct-22 22:29N 22°29' E 113°55'0 0.0
2014-Oct-22 21:29N 22°29' E 113°55'0 0.0
2014-Oct-22 20:29N 22°29' E 113°55'0 0.0
2014-Oct-22 19:29N 22°29' E 113°55'0 0.0
2014-Oct-22 18:23N 22°29' E 113°55'0 0.0
2014-Oct-22 17:29N 22°29' E 113°55'0 0.0
2014-Oct-22 16:29N 22°29' E 113°55'0 0.0
2014-Oct-22 15:29N 22°29' E 113°55'0 0.0
2014-Oct-22 14:29N 22°29' E 113°55'0 0.1
2014-Oct-22 13:34N 22°29' E 113°55'0 0.1
2014-Oct-22 11:34N 22°29' E 113°55'1410.7
2014-Oct-22 10:14N 22°19' E 114°06'4 5.4
2014-Oct-22 09:26N 22°21' E 114°02'1011.0
2014-Oct-22 08:33N 22°28' E 113°55'1716.6
2014-Oct-22 07:33N 22°18' E 114°09'1414.1
2014-Oct-22 06:33N 22°23' E 113°54'6 5.9
2014-Oct-22 05:33N 22°29' E 113°55'0 0.1
2014-Oct-22 04:33N 22°29' E 113°55'1616.4
2014-Oct-22 03:33N 22°18' E 114°08'1312.5
2014-Oct-22 02:33N 22°22' E 113°55'10 7.5
2014-Oct-22 01:11N 22°19' E 114°06'1 1.8
2014-Oct-22 00:33N 22°19' E 114°07'1514.9
2014-Oct-21 23:32N 22°29' E 113°55'0 0.0
2014-Oct-21 22:33N 22°29' E 113°55'0 0.0
2014-Oct-21 21:32N 22°29' E 113°55'0 0.0
2014-Oct-21 20:26N 22°29' E 113°55'0 0.0
2014-Oct-21 19:32N 22°29' E 113°55'0 0.0
2014-Oct-21 18:32N 22°29' E 113°55'0 0.0
2014-Oct-21 17:26N 22°29' E 113°55'0 0.0
2014-Oct-21 16:32N 22°29' E 113°55'0 0.0
2014-Oct-21 15:32N 22°29' E 113°55'0 0.0
2014-Oct-21 14:32N 22°29' E 113°55'6 4.8
2014-Oct-21 13:15N 22°23' E 113°55'6 8.2
2014-Oct-21 12:30N 22°29' E 113°55'0 0.0
2014-Oct-21 11:30N 22°29' E 113°55'1411.7
2014-Oct-21 10:17N 22°19' E 114°06'5 5.1
2014-Oct-21 09:23N 22°21' E 114°02'1011.8
2014-Oct-21 08:33N 22°29' E 113°55'1716.8
2014-Oct-21 07:33N 22°18' E 114°09'1616.0
2014-Oct-21 06:34N 22°27' E 113°55'2 1.6
2014-Oct-21 05:32N 22°29' E 113°55'0 0.1
2014-Oct-21 04:33N 22°29' E 113°55'1716.7
2014-Oct-21 03:34N 22°18' E 114°09'1313.0
2014-Oct-21 02:33N 22°22' E 113°55'5 4.0
2014-Oct-21 01:25N 22°21' E 114°00'7 8.3
2014-Oct-21 00:33N 22°19' E 114°08'1515.2
2014-Oct-20 23:32N 22°29' E 113°55'0 0.0
2014-Oct-20 22:32N 22°29' E 113°55'0 0.0
2014-Oct-20 21:32N 22°29' E 113°55'0 0.0
2014-Oct-20 20:32N 22°29' E 113°55'0 0.0
2014-Oct-20 19:32N 22°29' E 113°55'0 0.0
2014-Oct-20 18:32N 22°29' E 113°55'0 0.0
2014-Oct-20 17:26N 22°29' E 113°55'0 0.0
2014-Oct-20 16:32N 22°29' E 113°55'0 0.0
2014-Oct-20 15:32N 22°29' E 113°55'0 0.0
2014-Oct-20 14:32N 22°29' E 113°55'7 4.9
2014-Oct-20 13:12N 22°22' E 113°55'710.3
2014-Oct-20 12:33N 22°29' E 113°55'1716.6
2014-Oct-20 11:33N 22°15' E 113°45'1010.3
2014-Oct-20 10:33N 22°11' E 113°34'2625.6
2014-Oct-20 09:33N 22°28' E 113°55'1918.5
2014-Oct-20 08:33N 22°14' E 113°42'7 7.3
2014-Oct-20 07:33N 22°11' E 113°35'2625.6
2014-Oct-20 06:34N 22°29' E 113°55'4 3.7
2014-Oct-20 05:33N 22°25' E 113°53'2322.9
2014-Oct-20 04:33N 22°10' E 113°35'1616.3
2014-Oct-20 03:33N 22°20' E 113°48'1010.2
2014-Oct-20 02:33N 22°29' E 113°55'1410.0
2014-Oct-20 01:10N 22°19' E 114°06'2 3.4
2014-Oct-20 00:33N 22°19' E 114°08'1614.4
2014-Oct-19 23:28N 22°29' E 113°55'0 0.0
2014-Oct-19 22:33N 22°29' E 113°55'0 0.0
2014-Oct-19 21:33N 22°29' E 113°55'0 0.0
2014-Oct-19 20:33N 22°29' E 113°55'0 0.0
2014-Oct-19 19:33N 22°29' E 113°55'0 0.0
2014-Oct-19 18:33N 22°29' E 113°55'0 0.0
2014-Oct-19 17:33N 22°29' E 113°55'0 0.0
2014-Oct-19 16:33N 22°29' E 113°55'0 0.0
2014-Oct-19 15:33N 22°29' E 113°55'0 0.0
2014-Oct-19 14:33N 22°29' E 113°55'6 4.5
2014-Oct-19 13:13N 22°23' E 113°55'6 9.2
2014-Oct-19 12:33N 22°29' E 113°55'1716.9
2014-Oct-19 11:33N 22°15' E 113°44'9 9.2
2014-Oct-19 10:34N 22°11' E 113°35'2525.3
2014-Oct-19 09:33N 22°29' E 113°55'7 6.4
2014-Oct-19 08:30N 22°23' E 113°51'2021.0
2014-Oct-19 07:33N 22°10' E 113°35'1514.7
2014-Oct-19 06:33N 22°19' E 113°47'1210.7
2014-Oct-19 05:27N 22°21' E 113°60'6 7.0
2014-Oct-19 04:33N 22°19' E 114°06'1413.9
2014-Oct-19 03:33N 22°28' E 113°55'2524.9
2014-Oct-19 02:33N 22°11' E 113°36'9 9.3
2014-Oct-19 01:33N 22°15' E 113°44'1716.7
2014-Oct-19 00:34N 22°29' E 113°55'0 0.0
2014-Oct-18 23:33N 22°29' E 113°55'0 0.0
2014-Oct-18 22:33N 22°29' E 113°55'0 0.0
2014-Oct-18 21:33N 22°29' E 113°55'0 0.0
2014-Oct-18 20:27N 22°29' E 113°55'0 0.0
2014-Oct-18 19:33N 22°29' E 113°55'0 0.0
2014-Oct-18 18:33N 22°29' E 113°55'0 0.0
2014-Oct-18 17:33N 22°29' E 113°55'0 0.0
2014-Oct-18 16:33N 22°29' E 113°55'0 0.0
2014-Oct-18 15:33N 22°29' E 113°55'0 0.0
2014-Oct-18 14:33N 22°29' E 113°55'6 4.6
2014-Oct-18 13:11N 22°23' E 113°55'6 9.6
2014-Oct-18 12:32N 22°29' E 113°55'1717.8
2014-Oct-18 11:34N 22°15' E 113°44'8 7.6
2014-Oct-18 10:34N 22°11' E 113°37'2424.4
2014-Oct-18 09:33N 22°29' E 113°55'1 1.4
2014-Oct-18 08:33N 22°27' E 113°55'2525.1
2014-Oct-18 07:33N 22°10' E 113°35'1716.7
2014-Oct-18 06:33N 22°21' E 113°49'1712.2
2014-Oct-18 05:09N 22°19' E 114°07'0 0.7
2014-Oct-18 04:33N 22°19' E 114°08'1615.7
2014-Oct-18 03:33N 22°29' E 113°55'2322.4
2014-Oct-18 02:33N 22°12' E 113°39'6 6.5
2014-Oct-18 01:33N 22°15' E 113°45'1616.5
2014-Oct-18 00:33N 22°29' E 113°55'0 0.0
2014-Oct-17 23:31N 22°29' E 113°55'0 0.0
2014-Oct-17 22:31N 22°29' E 113°55'0 0.0
2014-Oct-17 21:31N 22°29' E 113°55'0 0.0
2014-Oct-17 20:31N 22°29' E 113°55'0 0.0
2014-Oct-17 19:31N 22°29' E 113°55'0 0.0
2014-Oct-17 18:31N 22°29' E 113°55'0 0.0
2014-Oct-17 17:31N 22°29' E 113°55'0 0.0
2014-Oct-17 16:31N 22°29' E 113°55'0 0.0
2014-Oct-17 15:31N 22°29' E 113°55'0 0.0
2014-Oct-17 14:31N 22°29' E 113°55'6 4.8
2014-Oct-17 13:11N 22°22' E 113°55'610.1
2014-Oct-17 12:33N 22°29' E 113°55'1919.2
2014-Oct-17 11:34N 22°14' E 113°42'3 2.6
2014-Oct-17 10:34N 22°12' E 113°39'2221.7
2014-Oct-17 09:33N 22°29' E 113°55'2 1.6
2014-Oct-17 08:34N 22°27' E 113°55'2524.8
2014-Oct-17 07:33N 22°10' E 113°35'1313.3
2014-Oct-17 06:34N 22°18' E 113°46'1211.5
2014-Oct-17 05:34N 22°27' E 113°54'2424.4
2014-Oct-17 04:33N 22°10' E 113°35'1515.4
2014-Oct-17 03:33N 22°20' E 113°48'1110.3
2014-Oct-17 02:29N 22°29' E 113°55'1411.2
2014-Oct-17 01:14N 22°19' E 114°06'0 0.6
2014-Oct-17 00:33N 22°19' E 114°06'1413.8
2014-Oct-16 23:31N 22°29' E 113°55'0 0.0
2014-Oct-16 22:18N 22°29' E 113°55'0 0.0
2014-Oct-16 21:31N 22°29' E 113°55'0 0.0
2014-Oct-16 20:30N 22°29' E 113°55'0 0.0
2014-Oct-16 19:24N 22°29' E 113°55'0 0.0
2014-Oct-16 18:30N 22°29' E 113°55'0 0.0
2014-Oct-16 17:24N 22°29' E 113°55'0 0.0
2014-Oct-16 16:31N 22°29' E 113°55'0 0.0
2014-Oct-16 15:30N 22°29' E 113°55'0 0.0
2014-Oct-16 14:30N 22°29' E 113°55'6 4.8
2014-Oct-16 13:13N 22°23' E 113°55'6 7.2
2014-Oct-16 12:21N 22°29' E 113°55'1822.3
2014-Oct-16 11:33N 22°17' E 113°40'4 4.1
2014-Oct-16 10:33N 22°13' E 113°40'2120.7
2014-Oct-16 09:33N 22°29' E 113°55'2 2.4
2014-Oct-16 08:33N 22°26' E 113°54'2424.2
2014-Oct-16 07:33N 22°10' E 113°35'1313.3
2014-Oct-16 06:33N 22°18' E 113°46'1312.5
2014-Oct-16 05:31N 22°29' E 113°55'0 0.1
2014-Oct-16 04:30N 22°29' E 113°55'1818.6
2014-Oct-16 03:33N 22°17' E 114°09'1514.5
2014-Oct-16 02:33N 22°23' E 113°55'11 8.6
2014-Oct-16 01:17N 22°19' E 114°06'0 0.5
2014-Oct-16 00:34N 22°19' E 114°06'1414.1
2014-Oct-15 23:32N 22°29' E 113°55'0 0.0
2014-Oct-15 21:20N 22°29' E 113°55'0 0.0
2014-Oct-15 20:32N 22°29' E 113°55'0 0.0
2014-Oct-15 19:08N 22°29' E 113°55'0 0.0
2014-Oct-15 18:14N 22°29' E 113°55'0 0.0
2014-Oct-15 16:32N 22°29' E 113°55'0 0.0
2014-Oct-15 15:26N 22°29' E 113°55'0 0.0
2014-Oct-15 14:32N 22°29' E 113°55'5 3.9
2014-Oct-15 13:16N 22°24' E 113°54'5 6.9
2014-Oct-15 12:33N 22°29' E 113°55'1716.9
2014-Oct-15 11:33N 22°15' E 113°44'1010.2
2014-Oct-15 10:33N 22°11' E 113°34'2625.8
2014-Oct-15 09:34N 22°28' E 113°55'1818.2
2014-Oct-15 08:33N 22°14' E 113°43'8 7.9
2014-Oct-15 07:33N 22°11' E 113°35'2625.6
2014-Oct-15 06:33N 22°29' E 113°55'0 0.4
2014-Oct-15 05:33N 22°28' E 113°55'2625.6
2014-Oct-15 04:33N 22°10' E 113°35'1514.8
2014-Oct-15 03:33N 22°19' E 113°47'1210.7
2014-Oct-15 02:29N 22°29' E 113°55'1511.8
2014-Oct-15 01:14N 22°19' E 114°07'5 6.2
2014-Oct-15 00:23N 22°21' E 114°01'1010.6
2014-Oct-14 23:27N 22°29' E 113°55'0 0.0
2014-Oct-14 22:30N 22°29' E 113°55'0 0.0
2014-Oct-14 20:18N 22°29' E 113°55'0 0.0
2014-Oct-14 19:18N 22°29' E 113°55'0 0.0
2014-Oct-14 18:24N 22°29' E 113°55'0 0.0
2014-Oct-14 17:24N 22°29' E 113°55'0 0.0
2014-Oct-14 16:30N 22°29' E 113°55'0 0.0
2014-Oct-14 15:30N 22°29' E 113°55'0 0.0
2014-Oct-14 14:30N 22°29' E 113°55'6 4.9
2014-Oct-14 13:13N 22°23' E 113°55'6 8.7
2014-Oct-14 12:29N 22°29' E 113°55'1616.8
2014-Oct-14 11:33N 22°16' E 113°45'1111.5
2014-Oct-14 10:33N 22°11' E 113°34'2525.5
2014-Oct-14 09:34N 22°28' E 113°55'1615.5
2014-Oct-14 08:33N 22°15' E 113°45'10 9.9
2014-Oct-14 07:34N 22°11' E 113°36'2525.3
2014-Oct-14 06:34N 22°29' E 113°55'2 2.3
2014-Oct-14 05:33N 22°26' E 113°54'2424.3
2014-Oct-14 04:33N 22°10' E 113°35'1514.5
2014-Oct-14 03:33N 22°19' E 113°47'1211.7
2014-Oct-14 02:32N 22°29' E 113°55'1410.5
2014-Oct-14 01:11N 22°19' E 114°06'1 2.4
2014-Oct-14 00:33N 22°19' E 114°07'1515.3
2014-Oct-13 23:33N 22°29' E 113°55'0 0.0
2014-Oct-13 22:34N 22°29' E 113°55'0 0.0
2014-Oct-13 21:34N 22°29' E 113°55'0 0.0
2014-Oct-13 20:34N 22°29' E 113°55'0 0.0
2014-Oct-13 19:34N 22°29' E 113°55'0 0.0
2014-Oct-13 18:34N 22°29' E 113°55'0 0.0
2014-Oct-13 17:34N 22°29' E 113°55'0 0.0
2014-Oct-13 16:34N 22°29' E 113°55'0 0.0
2014-Oct-13 15:34N 22°29' E 113°55'0 0.0
2014-Oct-13 14:33N 22°29' E 113°55'7 5.0
2014-Oct-13 13:14N 22°22' E 113°55'7 9.8
2014-Oct-13 12:33N 22°29' E 113°55'1615.9
2014-Oct-13 11:33N 22°15' E 113°45'1111.2
2014-Oct-13 10:33N 22°11' E 113°34'2625.8
2014-Oct-13 09:34N 22°28' E 113°55'1716.6
2014-Oct-13 08:33N 22°15' E 113°44'8 8.2
2014-Oct-13 07:33N 22°11' E 113°37'2524.4
2014-Oct-13 06:33N 22°29' E 113°55'3 3.2
2014-Oct-13 05:33N 22°26' E 113°53'2323.4
2014-Oct-13 04:33N 22°10' E 113°35'1616.2
2014-Oct-13 03:33N 22°20' E 113°48'1010.3
2014-Oct-13 02:33N 22°29' E 113°54'  
Track history (hours):
 
Tides and Currents Weather Stations Pressure Air Temp Water Temp Dewpoint Dewpoint Depression Visibility Wind Speed Wind Dir Waves Ship Positions

Xunlong5

Last reported at 2014-Oct-23 02:26 UTC. Time now 2014-Oct-23 03:02 UTC.
Position N 22°29' E 113°55'.

Length 34 m; draft 1.4 m.

Type: High speed craft. MMSI: 413471870.

Date/timePositionNaut miles runAvg speedWind from/ knotsBaromVisibWave heightAir tempDewpointWater temp
2014-Oct-23 02:26N 22°29' E 113°55'0 0.0
2014-Oct-23 01:32N 22°29' E 113°55'0 0.0
2014-Oct-23 00:29N 22°29' E 113°55'0 0.0
2014-Oct-22 23:29N 22°29' E 113°55'0 0.0
2014-Oct-22 22:29N 22°29' E 113°55'0 0.0
2014-Oct-22 21:29N 22°29' E 113°55'0 0.0
2014-Oct-22 20:29N 22°29' E 113°55'0 0.0
2014-Oct-22 19:29N 22°29' E 113°55'0 0.0
2014-Oct-22 18:23N 22°29' E 113°55'0 0.0
2014-Oct-22 17:29N 22°29' E 113°55'0 0.0
2014-Oct-22 16:29N 22°29' E 113°55'0 0.0
2014-Oct-22 15:29N 22°29' E 113°55'0 0.0
2014-Oct-22 14:29N 22°29' E 113°55'0 0.1
2014-Oct-22 13:34N 22°29' E 113°55'0 0.1
2014-Oct-22 11:34N 22°29' E 113°55'1410.7
2014-Oct-22 10:14N 22°19' E 114°06'4 5.4
2014-Oct-22 09:26N 22°21' E 114°02'1011.0
2014-Oct-22 08:33N 22°28' E 113°55'1716.6
2014-Oct-22 07:33N 22°18' E 114°09'1414.1
2014-Oct-22 06:33N 22°23' E 113°54'6 5.9
2014-Oct-22 05:33N 22°29' E 113°55'0 0.1
2014-Oct-22 04:33N 22°29' E 113°55'1616.4
2014-Oct-22 03:33N 22°18' E 114°08'1312.5
2014-Oct-22 02:33N 22°22' E 113°55'10 7.5
2014-Oct-22 01:11N 22°19' E 114°06'1 1.8
2014-Oct-22 00:33N 22°19' E 114°07'1514.9
2014-Oct-21 23:32N 22°29' E 113°55'0 0.0
2014-Oct-21 22:33N 22°29' E 113°55'0 0.0
2014-Oct-21 21:32N 22°29' E 113°55'0 0.0
2014-Oct-21 20:26N 22°29' E 113°55'0 0.0
2014-Oct-21 19:32N 22°29' E 113°55'0 0.0
2014-Oct-21 18:32N 22°29' E 113°55'0 0.0
2014-Oct-21 17:26N 22°29' E 113°55'0 0.0
2014-Oct-21 16:32N 22°29' E 113°55'0 0.0
2014-Oct-21 15:32N 22°29' E 113°55'0 0.0
2014-Oct-21 14:32N 22°29' E 113°55'6 4.8
2014-Oct-21 13:15N 22°23' E 113°55'6 8.2
2014-Oct-21 12:30N 22°29' E 113°55'0 0.0
2014-Oct-21 11:30N 22°29' E 113°55'1411.7
2014-Oct-21 10:17N 22°19' E 114°06'5 5.1
2014-Oct-21 09:23N 22°21' E 114°02'1011.8
2014-Oct-21 08:33N 22°29' E 113°55'1716.8
2014-Oct-21 07:33N 22°18' E 114°09'1616.0
2014-Oct-21 06:34N 22°27' E 113°55'2 1.6
2014-Oct-21 05:32N 22°29' E 113°55'0 0.1
2014-Oct-21 04:33N 22°29' E 113°55'1716.7
2014-Oct-21 03:34N 22°18' E 114°09'1313.0
2014-Oct-21 02:33N 22°22' E 113°55'5 4.0
2014-Oct-21 01:25N 22°21' E 114°00'7 8.3
2014-Oct-21 00:33N 22°19' E 114°08'1515.2
2014-Oct-20 23:32N 22°29' E 113°55'0 0.0
2014-Oct-20 22:32N 22°29' E 113°55'0 0.0
2014-Oct-20 21:32N 22°29' E 113°55'0 0.0
2014-Oct-20 20:32N 22°29' E 113°55'0 0.0
2014-Oct-20 19:32N 22°29' E 113°55'0 0.0
2014-Oct-20 18:32N 22°29' E 113°55'0 0.0
2014-Oct-20 17:26N 22°29' E 113°55'0 0.0
2014-Oct-20 16:32N 22°29' E 113°55'0 0.0
2014-Oct-20 15:32N 22°29' E 113°55'0 0.0
2014-Oct-20 14:32N 22°29' E 113°55'7 4.9
2014-Oct-20 13:12N 22°22' E 113°55'710.3
2014-Oct-20 12:33N 22°29' E 113°55'1716.6
2014-Oct-20 11:33N 22°15' E 113°45'1010.3
2014-Oct-20 10:33N 22°11' E 113°34'2625.6
2014-Oct-20 09:33N 22°28' E 113°55'1918.5
2014-Oct-20 08:33N 22°14' E 113°42'7 7.3
2014-Oct-20 07:33N 22°11' E 113°35'2625.6
2014-Oct-20 06:34N 22°29' E 113°55'4 3.7
2014-Oct-20 05:33N 22°25' E 113°53'2322.9
2014-Oct-20 04:33N 22°10' E 113°35'1616.3
2014-Oct-20 03:33N 22°20' E 113°48'1010.2
2014-Oct-20 02:33N 22°29' E 113°55'1410.0
2014-Oct-20 01:10N 22°19' E 114°06'2 3.4
2014-Oct-20 00:33N 22°19' E 114°08'1614.4
2014-Oct-19 23:28N 22°29' E 113°55'0 0.0
2014-Oct-19 22:33N 22°29' E 113°55'0 0.0
2014-Oct-19 21:33N 22°29' E 113°55'0 0.0
2014-Oct-19 20:33N 22°29' E 113°55'0 0.0
2014-Oct-19 19:33N 22°29' E 113°55'0 0.0
2014-Oct-19 18:33N 22°29' E 113°55'0 0.0
2014-Oct-19 17:33N 22°29' E 113°55'0 0.0
2014-Oct-19 16:33N 22°29' E 113°55'0 0.0
2014-Oct-19 15:33N 22°29' E 113°55'0 0.0
2014-Oct-19 14:33N 22°29' E 113°55'6 4.5
2014-Oct-19 13:13N 22°23' E 113°55'6 9.2
2014-Oct-19 12:33N 22°29' E 113°55'1716.9
2014-Oct-19 11:33N 22°15' E 113°44'9 9.2
2014-Oct-19 10:34N 22°11' E 113°35'2525.3
2014-Oct-19 09:33N 22°29' E 113°55'7 6.4
2014-Oct-19 08:30N 22°23' E 113°51'2021.0
2014-Oct-19 07:33N 22°10' E 113°35'1514.7
2014-Oct-19 06:33N 22°19' E 113°47'1210.7
2014-Oct-19 05:27N 22°21' E 113°60'6 7.0
2014-Oct-19 04:33N 22°19' E 114°06'1413.9
2014-Oct-19 03:33N 22°28' E 113°55'2524.9
2014-Oct-19 02:33N 22°11' E 113°36'9 9.3
2014-Oct-19 01:33N 22°15' E 113°44'1716.7
2014-Oct-19 00:34N 22°29' E 113°55'0 0.0
2014-Oct-18 23:33N 22°29' E 113°55'0 0.0
2014-Oct-18 22:33N 22°29' E 113°55'0 0.0
2014-Oct-18 21:33N 22°29' E 113°55'0 0.0
2014-Oct-18 20:27N 22°29' E 113°55'0 0.0
2014-Oct-18 19:33N 22°29' E 113°55'0 0.0
2014-Oct-18 18:33N 22°29' E 113°55'0 0.0
2014-Oct-18 17:33N 22°29' E 113°55'0 0.0
2014-Oct-18 16:33N 22°29' E 113°55'0 0.0
2014-Oct-18 15:33N 22°29' E 113°55'0 0.0
2014-Oct-18 14:33N 22°29' E 113°55'6 4.6
2014-Oct-18 13:11N 22°23' E 113°55'6 9.6
2014-Oct-18 12:32N 22°29' E 113°55'1717.8
2014-Oct-18 11:34N 22°15' E 113°44'8 7.6
2014-Oct-18 10:34N 22°11' E 113°37'2424.4
2014-Oct-18 09:33N 22°29' E 113°55'1 1.4
2014-Oct-18 08:33N 22°27' E 113°55'2525.1
2014-Oct-18 07:33N 22°10' E 113°35'1716.7
2014-Oct-18 06:33N 22°21' E 113°49'1712.2
2014-Oct-18 05:09N 22°19' E 114°07'0 0.7
2014-Oct-18 04:33N 22°19' E 114°08'1615.7
2014-Oct-18 03:33N 22°29' E 113°55'2322.4
2014-Oct-18 02:33N 22°12' E 113°39'6 6.5
2014-Oct-18 01:33N 22°15' E 113°45'1616.5
2014-Oct-18 00:33N 22°29' E 113°55'0 0.0
2014-Oct-17 23:31N 22°29' E 113°55'0 0.0
2014-Oct-17 22:31N 22°29' E 113°55'0 0.0
2014-Oct-17 21:31N 22°29' E 113°55'0 0.0
2014-Oct-17 20:31N 22°29' E 113°55'0 0.0
2014-Oct-17 19:31N 22°29' E 113°55'0 0.0
2014-Oct-17 18:31N 22°29' E 113°55'0 0.0
2014-Oct-17 17:31N 22°29' E 113°55'0 0.0
2014-Oct-17 16:31N 22°29' E 113°55'0 0.0
2014-Oct-17 15:31N 22°29' E 113°55'0 0.0
2014-Oct-17 14:31N 22°29' E 113°55'6 4.8
2014-Oct-17 13:11N 22°22' E 113°55'610.1
2014-Oct-17 12:33N 22°29' E 113°55'1919.2
2014-Oct-17 11:34N 22°14' E 113°42'3 2.6
2014-Oct-17 10:34N 22°12' E 113°39'2221.7
2014-Oct-17 09:33N 22°29' E 113°55'2 1.6
2014-Oct-17 08:34N 22°27' E 113°55'2524.8
2014-Oct-17 07:33N 22°10' E 113°35'1313.3
2014-Oct-17 06:34N 22°18' E 113°46'1211.5
2014-Oct-17 05:34N 22°27' E 113°54'2424.4
2014-Oct-17 04:33N 22°10' E 113°35'1515.4
2014-Oct-17 03:33N 22°20' E 113°48'1110.3
2014-Oct-17 02:29N 22°29' E 113°55'1411.2
2014-Oct-17 01:14N 22°19' E 114°06'0 0.6
2014-Oct-17 00:33N 22°19' E 114°06'1413.8
2014-Oct-16 23:31N 22°29' E 113°55'0 0.0
2014-Oct-16 22:18N 22°29' E 113°55'0 0.0
2014-Oct-16 21:31N 22°29' E 113°55'0 0.0
2014-Oct-16 20:30N 22°29' E 113°55'0 0.0
2014-Oct-16 19:24N 22°29' E 113°55'0 0.0
2014-Oct-16 18:30N 22°29' E 113°55'0 0.0
2014-Oct-16 17:24N 22°29' E 113°55'0 0.0
2014-Oct-16 16:31N 22°29' E 113°55'0 0.0
2014-Oct-16 15:30N 22°29' E 113°55'0 0.0
2014-Oct-16 14:30N 22°29' E 113°55'6 4.8
2014-Oct-16 13:13N 22°23' E 113°55'6 7.2
2014-Oct-16 12:21N 22°29' E 113°55'1822.3
2014-Oct-16 11:33N 22°17' E 113°40'4 4.1
2014-Oct-16 10:33N 22°13' E 113°40'2120.7
2014-Oct-16 09:33N 22°29' E 113°55'2 2.4
2014-Oct-16 08:33N 22°26' E 113°54'2424.2
2014-Oct-16 07:33N 22°10' E 113°35'1313.3
2014-Oct-16 06:33N 22°18' E 113°46'1312.5
2014-Oct-16 05:31N 22°29' E 113°55'0 0.1
2014-Oct-16 04:30N 22°29' E 113°55'1818.6
2014-Oct-16 03:33N 22°17' E 114°09'1514.5
2014-Oct-16 02:33N 22°23' E 113°55'11 8.6
2014-Oct-16 01:17N 22°19' E 114°06'0 0.5
2014-Oct-16 00:34N 22°19' E 114°06'1414.1
2014-Oct-15 23:32N 22°29' E 113°55'0 0.0
2014-Oct-15 21:20N 22°29' E 113°55'0 0.0
2014-Oct-15 20:32N 22°29' E 113°55'0 0.0
2014-Oct-15 19:08N 22°29' E 113°55'0 0.0
2014-Oct-15 18:14N 22°29' E 113°55'0 0.0
2014-Oct-15 16:32N 22°29' E 113°55'0 0.0
2014-Oct-15 15:26N 22°29' E 113°55'0 0.0
2014-Oct-15 14:32N 22°29' E 113°55'5 3.9
2014-Oct-15 13:16N 22°24' E 113°54'5 6.9
2014-Oct-15 12:33N 22°29' E 113°55'1716.9
2014-Oct-15 11:33N 22°15' E 113°44'1010.2
2014-Oct-15 10:33N 22°11' E 113°34'2625.8
2014-Oct-15 09:34N 22°28' E 113°55'1818.2
2014-Oct-15 08:33N 22°14' E 113°43'8 7.9
2014-Oct-15 07:33N 22°11' E 113°35'2625.6
2014-Oct-15 06:33N 22°29' E 113°55'0 0.4
2014-Oct-15 05:33N 22°28' E 113°55'2625.6
2014-Oct-15 04:33N 22°10' E 113°35'1514.8
2014-Oct-15 03:33N 22°19' E 113°47'1210.7
2014-Oct-15 02:29N 22°29' E 113°55'1511.8
2014-Oct-15 01:14N 22°19' E 114°07'5 6.2
2014-Oct-15 00:23N 22°21' E 114°01'1010.6
2014-Oct-14 23:27N 22°29' E 113°55'0 0.0
2014-Oct-14 22:30N 22°29' E 113°55'0 0.0
2014-Oct-14 20:18N 22°29' E 113°55'0 0.0
2014-Oct-14 19:18N 22°29' E 113°55'0 0.0
2014-Oct-14 18:24N 22°29' E 113°55'0 0.0
2014-Oct-14 17:24N 22°29' E 113°55'0 0.0
2014-Oct-14 16:30N 22°29' E 113°55'0 0.0
2014-Oct-14 15:30N 22°29' E 113°55'0 0.0
2014-Oct-14 14:30N 22°29' E 113°55'6 4.9
2014-Oct-14 13:13N 22°23' E 113°55'6 8.7
2014-Oct-14 12:29N 22°29' E 113°55'1616.8
2014-Oct-14 11:33N 22°16' E 113°45'1111.5
2014-Oct-14 10:33N 22°11' E 113°34'2525.5
2014-Oct-14 09:34N 22°28' E 113°55'1615.5
2014-Oct-14 08:33N 22°15' E 113°45'10 9.9
2014-Oct-14 07:34N 22°11' E 113°36'2525.3
2014-Oct-14 06:34N 22°29' E 113°55'2 2.3
2014-Oct-14 05:33N 22°26' E 113°54'2424.3
2014-Oct-14 04:33N 22°10' E 113°35'1514.5
2014-Oct-14 03:33N 22°19' E 113°47'1211.7
2014-Oct-14 02:32N 22°29' E 113°55'1410.5
2014-Oct-14 01:11N 22°19' E 114°06'1 2.4
2014-Oct-14 00:33N 22°19' E 114°07'1515.3
2014-Oct-13 23:33N 22°29' E 113°55'0 0.0
2014-Oct-13 22:34N 22°29' E 113°55'0 0.0
2014-Oct-13 21:34N 22°29' E 113°55'0 0.0
2014-Oct-13 20:34N 22°29' E 113°55'0 0.0
2014-Oct-13 19:34N 22°29' E 113°55'0 0.0
2014-Oct-13 18:34N 22°29' E 113°55'0 0.0
2014-Oct-13 17:34N 22°29' E 113°55'0 0.0
2014-Oct-13 16:34N 22°29' E 113°55'0 0.0
2014-Oct-13 15:34N 22°29' E 113°55'0 0.0
2014-Oct-13 14:33N 22°29' E 113°55'7 5.0
2014-Oct-13 13:14N 22°22' E 113°55'7 9.8
2014-Oct-13 12:33N 22°29' E 113°55'1615.9
2014-Oct-13 11:33N 22°15' E 113°45'1111.2
2014-Oct-13 10:33N 22°11' E 113°34'2625.8
2014-Oct-13 09:34N 22°28' E 113°55'1716.6
2014-Oct-13 08:33N 22°15' E 113°44'8 8.2
2014-Oct-13 07:33N 22°11' E 113°37'2524.4
2014-Oct-13 06:33N 22°29' E 113°55'3 3.2
2014-Oct-13 05:33N 22°26' E 113°53'2323.4
2014-Oct-13 04:33N 22°10' E 113°35'1616.2
2014-Oct-13 03:33N 22°20' E 113°48'1010.3
2014-Oct-13 02:33N 22°29' E 113°54'  

Dump ship's entire track history